Time;durP1;ratioP1;P1;durP2;ratioP2;P2;SDS_P1;SDS_P2;PMS_P1;PMS_P2;Temp;Humidity;BMP_temperature;BMP_pressure;BME280_temperature;BME280_humidity;BME280_pressure;Samples;Min_cycle;Max_cycle;Signal;HPM_P1;HPM_P2
2020/12/20 00:00:21;;;;;;;64.87;32.37;;;3.00;93.50;;;;;;5043445;28;20207;-81
2020/12/20 00:02:58;;;;;;;65.27;31.77;;;3.00;93.50;;;;;;5072258;28;20212;-80
2020/12/20 00:05:26;;;;;;;66.40;32.20;;;3.00;93.50;;;;;;5062638;28;20229;-81
2020/12/20 00:07:55;;;;;;;62.87;32.40;;;3.00;93.50;;;;;;5073247;28;20284;-81
2020/12/20 00:10:23;;;;;;;62.40;33.37;;;3.00;93.50;;;;;;5048747;28;20203;-81
2020/12/20 00:12:51;;;;;;;60.67;32.37;;;3.00;93.50;;;;;;5046457;28;20302;-80
2020/12/20 00:15:22;;;;;;;67.23;33.97;;;3.00;93.50;;;;;;5064098;28;20229;-82
2020/12/20 00:17:51;;;;;;;72.03;34.00;;;3.00;93.60;;;;;;5048983;28;20202;-80
2020/12/20 00:20:19;;;;;;;67.87;32.43;;;3.10;93.60;;;;;;5042092;28;20654;-82
2020/12/20 00:22:47;;;;;;;68.03;31.27;;;3.00;93.60;;;;;;5057357;28;20886;-81
2020/12/20 00:25:15;;;;;;;66.33;33.40;;;3.00;93.60;;;;;;5047013;28;20383;-81
2020/12/20 00:27:43;;;;;;;64.83;32.63;;;3.00;93.60;;;;;;5047984;28;20641;-81
2020/12/20 00:30:10;;;;;;;65.77;33.57;;;3.10;93.60;;;;;;5058093;28;20556;-79
2020/12/20 00:32:39;;;;;;;63.60;33.27;;;3.10;93.60;;;;;;5052136;28;20636;-81
2020/12/20 00:35:07;;;;;;;68.73;34.00;;;3.00;93.60;;;;;;5050188;28;20516;-82
2020/12/20 00:37:35;;;;;;;66.37;33.33;;;3.10;93.60;;;;;;5055453;28;20201;-80
2020/12/20 00:40:04;;;;;;;71.03;34.80;;;3.00;93.60;;;;;;5059243;28;20643;-81
2020/12/20 00:42:32;;;;;;;77.33;35.13;;;3.10;93.70;;;;;;5043083;28;20659;-80
2020/12/20 00:45:00;;;;;;;67.53;34.27;;;3.10;93.70;;;;;;5049643;28;20728;-81
2020/12/20 00:47:27;;;;;;;71.70;34.53;;;3.10;93.70;;;;;;5052073;28;20420;-81
2020/12/20 00:49:56;;;;;;;72.43;35.43;;;3.00;93.70;;;;;;5044012;28;20227;-82
2020/12/20 00:52:23;;;;;;;72.13;33.73;;;3.10;93.70;;;;;;5043677;28;20198;-83
2020/12/20 00:54:51;;;;;;;66.80;34.00;;;3.20;93.70;;;;;;5053618;28;20592;-82
2020/12/20 00:57:18;;;;;;;70.90;34.17;;;3.30;93.80;;;;;;5042827;28;20207;-83
2020/12/20 00:59:47;;;;;;;70.43;34.20;;;3.10;93.70;;;;;;5055492;28;20243;-82
2020/12/20 01:02:14;;;;;;;66.37;33.50;;;3.10;93.70;;;;;;5049503;28;20208;-80
2020/12/20 01:04:42;;;;;;;68.50;32.13;;;3.10;93.70;;;;;;5045302;28;20226;-80
2020/12/20 01:07:11;;;;;;;64.33;33.00;;;3.10;93.70;;;;;;5058326;28;20363;-80
2020/12/20 01:09:41;;;;;;;62.47;31.70;;;3.10;93.80;;;;;;5049171;28;20435;-80
2020/12/20 01:12:09;;;;;;;61.23;31.30;;;3.10;93.80;;;;;;5057311;28;20215;-81
2020/12/20 01:14:36;;;;;;;59.33;31.03;;;3.20;93.80;;;;;;5039548;28;20427;-82
2020/12/20 01:17:04;;;;;;;60.50;31.23;;;3.10;93.70;;;;;;5055061;28;20344;-78
2020/12/20 01:19:39;;;;;;;61.73;31.03;;;3.20;93.80;;;;;;5055193;28;20661;-80
2020/12/20 01:22:07;;;;;;;58.63;30.90;;;3.10;93.70;;;;;;5071435;28;20234;-81
2020/12/20 01:24:35;;;;;;;64.30;30.70;;;3.10;93.70;;;;;;5060158;28;20230;-80
2020/12/20 01:27:03;;;;;;;59.90;30.80;;;3.10;93.80;;;;;;5064614;28;20411;-80
2020/12/20 01:29:30;;;;;;;55.33;28.90;;;3.10;93.80;;;;;;5079603;28;20290;-79
2020/12/20 01:31:58;;;;;;;63.40;31.40;;;3.10;93.80;;;;;;5068748;28;20285;-81
2020/12/20 01:34:25;;;;;;;66.33;32.17;;;3.20;93.80;;;;;;5066797;28;20208;-82
2020/12/20 01:36:55;;;;;;;60.33;31.37;;;3.20;93.80;;;;;;5052746;28;20212;-81
2020/12/20 01:39:23;;;;;;;60.13;29.53;;;3.10;93.80;;;;;;5052849;28;20704;-81
2020/12/20 01:41:53;;;;;;;63.03;32.33;;;3.20;93.80;;;;;;5045509;28;20212;-81
2020/12/20 01:44:20;;;;;;;62.50;30.27;;;3.10;93.80;;;;;;5054882;28;20231;-81
2020/12/20 01:46:51;;;;;;;63.07;30.47;;;3.20;93.90;;;;;;5048681;28;20209;-81
2020/12/20 01:49:19;;;;;;;61.60;30.97;;;3.10;93.80;;;;;;5054333;28;20500;-81
2020/12/20 01:51:48;;;;;;;64.00;31.63;;;3.20;93.90;;;;;;5051940;28;20276;-81
2020/12/20 01:54:16;;;;;;;70.77;32.07;;;3.10;93.90;;;;;;5040791;28;20209;-80
2020/12/20 01:56:46;;;;;;;68.00;31.73;;;3.20;93.90;;;;;;5042412;28;20720;-80
2020/12/20 01:59:14;;;;;;;66.27;31.90;;;3.10;93.90;;;;;;5056233;28;20369;-81
2020/12/20 02:01:41;;;;;;;72.63;33.60;;;3.10;93.90;;;;;;5043190;28;20206;-80
2020/12/20 02:04:09;;;;;;;69.60;32.53;;;3.10;93.90;;;;;;5050535;28;20271;-82
2020/12/20 02:06:38;;;;;;;77.87;32.93;;;3.10;94.00;;;;;;5052361;28;20197;-81
2020/12/20 02:09:06;;;;;;;76.93;32.30;;;3.20;94.00;;;;;;5047426;28;20209;-80
2020/12/20 02:11:34;;;;;;;84.30;34.80;;;3.10;94.00;;;;;;5058000;28;20502;-81
2020/12/20 02:14:01;;;;;;;78.17;32.53;;;3.20;94.00;;;;;;5049980;28;20193;-82
2020/12/20 02:16:29;;;;;;;84.43;34.30;;;3.10;94.00;;;;;;5039812;28;20514;-79
2020/12/20 02:18:57;;;;;;;87.93;34.20;;;3.10;94.00;;;;;;5046222;28;20197;-81
2020/12/20 02:21:26;;;;;;;89.00;34.07;;;3.10;94.00;;;;;;5046469;28;20728;-81
2020/12/20 02:23:53;;;;;;;79.60;31.77;;;3.10;94.00;;;;;;5038799;28;20210;-81
2020/12/20 02:26:22;;;;;;;94.50;35.53;;;3.10;94.00;;;;;;5067989;28;20729;-81
2020/12/20 02:28:50;;;;;;;78.37;32.97;;;3.10;94.10;;;;;;5050405;28;20209;-82
2020/12/20 02:31:18;;;;;;;83.27;33.93;;;3.10;94.10;;;;;;5068691;28;20210;-81
2020/12/20 02:33:46;;;;;;;89.70;34.27;;;3.10;94.10;;;;;;5054706;28;22076;-81
2020/12/20 02:36:14;;;;;;;89.10;35.73;;;3.10;94.10;;;;;;5045184;28;20203;-81
2020/12/20 02:38:43;;;;;;;82.70;34.90;;;3.10;94.10;;;;;;5048001;28;20206;-79
2020/12/20 02:41:11;;;;;;;94.70;35.80;;;3.00;94.00;;;;;;5050760;28;20205;-81
2020/12/20 02:43:39;;;;;;;89.77;35.77;;;3.10;94.10;;;;;;5051806;28;20717;-80
2020/12/20 02:46:06;;;;;;;91.23;35.53;;;3.10;94.10;;;;;;5063426;28;20233;-80
2020/12/20 02:48:33;;;;;;;88.37;35.27;;;3.00;94.00;;;;;;5056302;28;20395;-81
2020/12/20 02:51:01;;;;;;;82.10;33.67;;;3.00;94.00;;;;;;5046575;28;20697;-82
2020/12/20 02:53:29;;;;;;;88.60;34.90;;;3.10;94.10;;;;;;5055101;28;20214;-80
2020/12/20 02:55:57;;;;;;;86.20;36.33;;;3.10;94.10;;;;;;5047156;28;20491;-79
2020/12/20 02:58:24;;;;;;;92.93;34.97;;;3.00;94.00;;;;;;5074962;28;20218;-80
2020/12/20 03:00:52;;;;;;;95.43;34.63;;;3.10;94.00;;;;;;5071979;28;20182;-81
2020/12/20 03:03:19;;;;;;;85.47;35.17;;;3.00;94.00;;;;;;5074855;28;20529;-80
2020/12/20 03:05:46;;;;;;;80.80;33.33;;;3.00;94.00;;;;;;5065134;28;20652;-80
2020/12/20 03:08:15;;;;;;;86.57;35.97;;;3.00;94.00;;;;;;5075377;28;20221;-83
2020/12/20 03:10:42;;;;;;;77.13;33.40;;;3.00;94.00;;;;;;5076042;28;20212;-80
2020/12/20 03:13:11;;;;;;;84.67;33.40;;;3.10;94.00;;;;;;5063857;28;20234;-80
2020/12/20 03:15:41;;;;;;;82.70;34.33;;;3.10;94.00;;;;;;5069777;28;20232;-80
2020/12/20 03:18:09;;;;;;;77.67;31.73;;;3.00;94.00;;;;;;5060818;28;20213;-80
2020/12/20 03:20:51;;;;;;;74.10;31.67;;;3.10;94.00;;;;;;5066979;28;20202;-80
2020/12/20 03:23:19;;;;;;;87.30;34.43;;;3.00;94.00;;;;;;5087509;28;20298;-81
2020/12/20 03:25:46;;;;;;;72.03;32.60;;;3.00;94.00;;;;;;5073437;28;20271;-82
2020/12/20 03:28:15;;;;;;;79.30;33.10;;;3.00;94.00;;;;;;5081361;28;20199;-80
2020/12/20 03:30:42;;;;;;;80.43;34.63;;;3.00;94.00;;;;;;5079857;28;20519;-80
2020/12/20 03:33:09;;;;;;;79.87;32.70;;;3.00;94.00;;;;;;5058962;28;20217;-80
2020/12/20 03:35:37;;;;;;;71.77;31.93;;;2.90;94.00;;;;;;5044678;28;20213;-82
2020/12/20 03:38:04;;;;;;;80.57;33.73;;;2.80;93.90;;;;;;5057497;28;20191;-80
2020/12/20 03:40:32;;;;;;;86.47;34.37;;;3.00;94.00;;;;;;5057353;28;20203;-80
2020/12/20 03:42:59;;;;;;;79.30;33.83;;;2.90;93.90;;;;;;5064161;28;20523;-80
2020/12/20 03:45:28;;;;;;;82.80;33.67;;;3.00;94.00;;;;;;5085022;28;20210;-81
2020/12/20 03:47:55;;;;;;;83.23;33.97;;;2.90;93.90;;;;;;5057713;28;20514;-81
2020/12/20 03:50:23;;;;;;;85.10;32.93;;;2.90;93.90;;;;;;5051027;28;20220;-81
2020/12/20 03:52:50;;;;;;;85.33;33.77;;;2.90;93.90;;;;;;5053435;28;20503;-81
2020/12/20 03:55:18;;;;;;;80.70;33.30;;;2.90;93.90;;;;;;5053286;28;20450;-81
2020/12/20 03:57:46;;;;;;;76.20;33.27;;;2.90;93.90;;;;;;5036026;28;20207;-81
2020/12/20 04:00:13;;;;;;;81.97;34.17;;;2.90;93.90;;;;;;5058015;28;20312;-81
2020/12/20 04:02:42;;;;;;;84.20;33.47;;;2.90;93.90;;;;;;5047296;28;20376;-82
2020/12/20 04:05:09;;;;;;;78.70;35.37;;;3.00;93.90;;;;;;5046155;28;20229;-81
2020/12/20 04:07:37;;;;;;;86.23;34.37;;;2.90;93.90;;;;;;5055679;28;20202;-82
2020/12/20 04:10:04;;;;;;;90.57;34.93;;;3.10;93.90;;;;;;5049947;28;20202;-82
2020/12/20 04:12:31;;;;;;;81.53;33.20;;;2.90;93.90;;;;;;5053441;28;20207;-82
2020/12/20 04:14:59;;;;;;;78.27;32.73;;;2.90;93.90;;;;;;5048258;28;20213;-80
2020/12/20 04:17:26;;;;;;;88.53;35.50;;;2.90;93.90;;;;;;5053295;28;20524;-80
2020/12/20 04:19:55;;;;;;;80.50;32.50;;;2.90;93.90;;;;;;5039476;28;20205;-81
2020/12/20 04:22:22;;;;;;;81.90;33.70;;;2.90;93.90;;;;;;5064272;28;20201;-79
2020/12/20 04:24:50;;;;;;;83.47;34.63;;;2.90;93.90;;;;;;5068041;28;20225;-80
2020/12/20 04:27:17;;;;;;;85.47;34.07;;;2.90;93.90;;;;;;5076063;28;20273;-81
2020/12/20 04:29:45;;;;;;;74.93;32.47;;;2.90;93.90;;;;;;5078166;28;20186;-81
2020/12/20 04:32:12;;;;;;;83.07;34.20;;;2.90;93.90;;;;;;5045123;28;20204;-81
2020/12/20 04:34:39;;;;;;;79.17;32.77;;;2.80;93.90;;;;;;5055992;28;20623;-81
2020/12/20 04:37:08;;;;;;;83.63;33.50;;;2.90;93.90;;;;;;5054946;28;20205;-80
2020/12/20 04:39:35;;;;;;;83.07;33.70;;;2.90;93.90;;;;;;5049944;28;20333;-81
2020/12/20 04:42:03;;;;;;;82.27;33.77;;;2.90;93.90;;;;;;5055647;28;20199;-80
2020/12/20 04:44:30;;;;;;;87.47;33.67;;;2.90;93.90;;;;;;5049958;28;20606;-80
2020/12/20 04:46:59;;;;;;;84.50;34.03;;;2.90;93.90;;;;;;5034458;28;20213;-81
2020/12/20 04:49:30;;;;;;;82.93;34.43;;;2.90;93.90;;;;;;5050344;28;20276;-80
2020/12/20 04:51:59;;;;;;;83.33;33.47;;;2.80;93.90;;;;;;5036136;28;20303;-81
2020/12/20 04:54:27;;;;;;;76.47;34.03;;;2.90;93.90;;;;;;5044491;28;20563;-82
2020/12/20 04:56:54;;;;;;;82.00;33.87;;;2.90;93.90;;;;;;5054143;28;20562;-79
2020/12/20 04:59:24;;;;;;;94.17;34.10;;;2.90;93.90;;;;;;5077281;28;20198;-81
2020/12/20 05:01:51;;;;;;;80.07;34.97;;;2.90;93.90;;;;;;5053873;28;20206;-82
2020/12/20 05:04:19;;;;;;;87.20;33.63;;;3.00;93.90;;;;;;5058942;28;20295;-81
2020/12/20 05:06:46;;;;;;;77.03;33.13;;;2.90;93.90;;;;;;5046009;28;20227;-82
2020/12/20 05:09:14;;;;;;;85.30;34.70;;;2.90;93.90;;;;;;5039625;28;20203;-80
2020/12/20 05:11:42;;;;;;;83.10;35.03;;;2.90;93.90;;;;;;5054635;28;20205;-79
2020/12/20 05:14:14;;;;;;;76.43;32.57;;;2.90;93.90;;;;;;5046479;28;20207;-79
2020/12/20 05:16:41;;;;;;;80.37;32.43;;;2.90;93.90;;;;;;5034862;28;20272;-81
2020/12/20 05:19:15;;;;;;;84.20;33.97;;;2.90;93.90;;;;;;5045447;28;20621;-80
2020/12/20 05:21:44;;;;;;;83.07;34.93;;;2.90;93.90;;;;;;5052323;28;20231;-82
2020/12/20 05:24:28;;;;;;;79.50;33.57;;;2.90;93.90;;;;;;5043199;28;20207;-81
2020/12/20 05:26:57;;;;;;;94.83;34.93;;;2.90;93.90;;;;;;5045869;28;20232;-81
2020/12/20 05:29:27;;;;;;;90.60;34.37;;;2.90;93.90;;;;;;5036920;28;20270;-81
2020/12/20 05:31:56;;;;;;;87.40;34.57;;;2.90;93.90;;;;;;5049401;28;20646;-82
2020/12/20 05:34:23;;;;;;;83.83;34.23;;;2.90;93.90;;;;;;5049496;28;20576;-79
2020/12/20 05:36:51;;;;;;;86.63;35.87;;;2.90;93.90;;;;;;5057437;28;20664;-80
2020/12/20 05:39:19;;;;;;;85.30;35.93;;;2.90;93.90;;;;;;5058626;28;20436;-80
2020/12/20 05:41:48;;;;;;;85.57;34.97;;;2.90;93.90;;;;;;5032968;28;20221;-82
2020/12/20 05:44:19;;;;;;;87.17;35.33;;;2.90;93.90;;;;;;5050390;28;20281;-80
2020/12/20 05:46:48;;;;;;;89.53;35.20;;;2.90;93.90;;;;;;5042077;28;20229;-82
2020/12/20 05:49:18;;;;;;;91.00;36.27;;;2.90;93.90;;;;;;5051761;28;20194;-80
2020/12/20 05:52:06;;;;;;;95.80;35.87;;;2.90;93.90;;;;;;5075905;28;20181;-82
2020/12/20 05:54:36;;;;;;;90.80;37.57;;;2.90;93.90;;;;;;5065849;28;20273;-80
2020/12/20 05:57:11;;;;;;;90.60;37.53;;;2.90;93.90;;;;;;5055706;28;20221;-80
2020/12/20 05:59:41;;;;;;;91.17;36.37;;;2.90;93.90;;;;;;5062590;28;20211;-79
2020/12/20 06:02:09;;;;;;;91.33;37.17;;;2.90;93.90;;;;;;5050094;28;20217;-80
2020/12/20 06:04:37;;;;;;;98.83;36.03;;;2.90;93.90;;;;;;5057877;28;20324;-80
2020/12/20 06:07:07;;;;;;;86.87;35.00;;;2.90;93.90;;;;;;5054152;28;20201;-81
2020/12/20 06:09:45;;;;;;;89.00;36.40;;;2.90;93.90;;;;;;5038271;28;20664;-81
2020/12/20 06:12:17;;;;;;;95.20;38.20;;;2.90;93.90;;;;;;5056006;28;20197;-80
2020/12/20 06:14:46;;;;;;;85.37;35.63;;;2.90;93.90;;;;;;5051924;28;21162;-81
2020/12/20 06:17:16;;;;;;;92.27;36.63;;;3.00;93.90;;;;;;5049774;28;20275;-82
2020/12/20 06:19:55;;;;;;;83.07;37.20;;;2.90;93.90;;;;;;5052187;28;20204;-80
2020/12/20 06:22:25;;;;;;;94.83;36.27;;;2.90;93.90;;;;;;5075264;28;20441;-79
2020/12/20 06:24:55;;;;;;;95.87;37.33;;;2.90;93.90;;;;;;5054784;28;20658;-82
2020/12/20 06:27:23;;;;;;;97.57;37.87;;;3.00;93.90;;;;;;5055615;28;20558;-83
2020/12/20 06:29:55;;;;;;;90.80;36.73;;;2.90;93.90;;;;;;5064514;28;20202;-82
2020/12/20 06:32:28;;;;;;;97.07;37.87;;;3.00;93.90;;;;;;5079242;28;20478;-81
2020/12/20 06:34:59;;;;;;;93.77;37.40;;;2.90;93.90;;;;;;5072682;28;20185;-81
2020/12/20 06:37:27;;;;;;;87.80;36.77;;;2.90;93.90;;;;;;5063142;28;20240;-80
2020/12/20 06:39:54;;;;;;;101.03;38.07;;;2.90;93.90;;;;;;5082972;28;20198;-81
2020/12/20 06:42:36;;;;;;;85.30;35.83;;;2.90;93.90;;;;;;5077719;28;20202;-80
2020/12/20 06:45:18;;;;;;;93.27;37.37;;;3.00;93.90;;;;;;5061116;28;20203;-80
2020/12/20 06:47:48;;;;;;;92.57;36.43;;;3.00;93.90;;;;;;5077259;28;20193;-81
2020/12/20 06:50:46;;;;;;;92.00;37.40;;;3.00;93.90;;;;;;5070152;28;20202;-81
2020/12/20 06:53:15;;;;;;;92.50;38.03;;;2.90;93.90;;;;;;5053665;28;20213;-81
2020/12/20 06:55:43;;;;;;;92.97;37.70;;;2.90;93.90;;;;;;5071986;28;20795;-82
2020/12/20 06:58:16;;;;;;;102.27;39.57;;;2.90;93.90;;;;;;5065118;28;20530;-82
2020/12/20 07:00:47;;;;;;;93.37;37.40;;;2.90;93.90;;;;;;5061198;28;20271;-79
2020/12/20 07:03:37;;;;;;;97.13;38.17;;;2.90;93.90;;;;;;5058123;28;20209;-82
2020/12/20 07:06:16;;;;;;;103.87;40.30;;;2.90;93.90;;;;;;5043030;28;20303;-82
2020/12/20 07:09:07;;;;;;;96.50;37.13;;;2.90;93.90;;;;;;5066307;28;20202;-81
2020/12/20 07:11:47;;;;;;;92.53;38.90;;;2.90;93.90;;;;;;5074541;28;20186;-81
2020/12/20 07:14:22;;;;;;;99.23;38.83;;;3.00;93.90;;;;;;5070471;28;20237;-82
2020/12/20 07:16:51;;;;;;;94.27;38.60;;;2.90;93.90;;;;;;5066845;28;20540;-81
2020/12/20 07:19:22;;;;;;;90.73;38.50;;;2.90;93.90;;;;;;5078907;28;20190;-81
2020/12/20 07:22:07;;;;;;;96.97;39.13;;;2.90;93.90;;;;;;5077296;28;20194;-81
2020/12/20 07:24:37;;;;;;;93.10;38.30;;;3.00;93.90;;;;;;5073983;28;20190;-80
2020/12/20 07:27:06;;;;;;;101.27;39.23;;;2.90;93.90;;;;;;5080743;28;20209;-80
2020/12/20 07:29:35;;;;;;;93.73;40.63;;;2.90;93.90;;;;;;5075748;28;20205;-82
2020/12/20 07:32:04;;;;;;;97.63;39.63;;;3.00;93.90;;;;;;5074674;28;20708;-82
2020/12/20 07:34:33;;;;;;;97.97;40.93;;;2.90;93.90;;;;;;5069889;28;20186;-80
2020/12/20 07:37:01;;;;;;;94.47;38.67;;;3.00;93.90;;;;;;5063038;28;20739;-81
2020/12/20 07:39:29;;;;;;;96.17;39.57;;;3.00;93.90;;;;;;5061484;28;20473;-80
2020/12/20 07:42:00;;;;;;;88.50;39.80;;;2.90;93.90;;;;;;5060980;28;20406;-82
2020/12/20 07:44:28;;;;;;;95.00;40.33;;;3.00;93.90;;;;;;5061915;28;20784;-82
2020/12/20 07:46:56;;;;;;;92.83;40.07;;;3.10;93.90;;;;;;5057465;28;20314;-79
2020/12/20 07:49:24;;;;;;;92.53;40.43;;;3.00;93.90;;;;;;5060552;28;20202;-80
2020/12/20 07:51:52;;;;;;;93.20;38.60;;;3.00;93.90;;;;;;5080983;28;20195;-80
2020/12/20 07:54:23;;;;;;;96.10;39.53;;;3.00;93.90;;;;;;5065814;28;20209;-81
2020/12/20 07:56:51;;;;;;;94.77;39.00;;;3.00;93.90;;;;;;5053828;28;20198;-79
2020/12/20 07:59:19;;;;;;;94.23;38.27;;;3.00;93.90;;;;;;5061036;28;20444;-82
2020/12/20 08:01:49;;;;;;;97.03;40.50;;;3.00;93.90;;;;;;5056783;28;20206;-82
2020/12/20 08:04:18;;;;;;;87.63;39.57;;;3.00;93.90;;;;;;5049229;28;20197;-80
2020/12/20 08:06:49;;;;;;;88.57;38.87;;;3.10;94.00;;;;;;5062617;28;20487;-79
2020/12/20 08:09:22;;;;;;;92.53;40.23;;;3.00;94.00;;;;;;5051762;28;20554;-81
2020/12/20 08:11:51;;;;;;;95.10;41.67;;;3.00;94.00;;;;;;5066251;28;20270;-80
2020/12/20 08:14:20;;;;;;;95.30;39.07;;;3.00;94.00;;;;;;5068839;28;20287;-82
2020/12/20 08:16:50;;;;;;;93.83;40.40;;;2.90;94.00;;;;;;5048840;28;20289;-80
2020/12/20 08:19:20;;;;;;;96.63;40.43;;;2.90;94.00;;;;;;5065019;28;20281;-80
2020/12/20 08:21:57;;;;;;;106.70;40.60;;;2.90;94.00;;;;;;5065972;28;20210;-82
2020/12/20 08:24:29;;;;;;;95.97;39.97;;;2.90;94.00;;;;;;5073912;28;20216;-82
2020/12/20 08:26:57;;;;;;;98.00;41.67;;;2.80;94.00;;;;;;5082737;28;20207;-80
2020/12/20 08:29:25;;;;;;;104.67;41.57;;;2.90;94.00;;;;;;5076492;27;20213;-79
2020/12/20 08:31:53;;;;;;;98.53;40.37;;;2.90;94.00;;;;;;5072834;28;20418;-82
2020/12/20 08:34:23;;;;;;;104.07;41.73;;;2.80;94.00;;;;;;5061940;28;20205;-78
2020/12/20 08:36:54;;;;;;;88.93;40.47;;;2.80;94.00;;;;;;5083610;28;20200;-81
2020/12/20 08:39:23;;;;;;;102.27;41.40;;;2.80;94.00;;;;;;5081471;28;20195;-81
2020/12/20 08:42:01;;;;;;;96.93;42.03;;;2.80;94.00;;;;;;5062218;28;20552;-80
2020/12/20 08:44:30;;;;;;;102.00;42.13;;;2.80;94.00;;;;;;5065906;28;20469;-81
2020/12/20 08:47:09;;;;;;;97.53;42.37;;;2.80;94.00;;;;;;5085823;28;20213;-80
2020/12/20 08:49:38;;;;;;;100.60;42.00;;;2.90;94.00;;;;;;5075509;28;20190;-78
2020/12/20 08:52:12;;;;;;;98.27;43.67;;;2.90;94.00;;;;;;5077113;28;20644;-80
2020/12/20 08:54:49;;;;;;;98.47;40.43;;;2.90;94.00;;;;;;5065599;28;20795;-81
2020/12/20 08:57:17;;;;;;;94.10;40.63;;;2.90;94.00;;;;;;5053219;28;20211;-81
2020/12/20 08:59:46;;;;;;;99.53;42.80;;;3.00;94.00;;;;;;5060041;28;20605;-81
2020/12/20 09:02:18;;;;;;;96.03;41.17;;;3.00;94.00;;;;;;5058617;28;20370;-82
2020/12/20 09:04:58;;;;;;;99.90;41.00;;;3.00;94.00;;;;;;5049070;28;20210;-81
2020/12/20 09:07:35;;;;;;;90.97;41.23;;;3.00;94.00;;;;;;5056364;28;20503;-82
2020/12/20 09:10:11;;;;;;;92.37;40.30;;;3.00;94.00;;;;;;5056580;28;20202;-81
2020/12/20 09:12:47;;;;;;;102.17;42.77;;;3.00;94.00;;;;;;5047407;28;20954;-80
2020/12/20 09:15:16;;;;;;;89.00;40.53;;;3.00;94.00;;;;;;5052015;28;20214;-80
2020/12/20 09:17:45;;;;;;;93.97;40.00;;;3.00;94.00;;;;;;5043138;28;21004;-80
2020/12/20 09:20:15;;;;;;;88.80;41.00;;;3.00;94.00;;;;;;5050145;28;20278;-81
2020/12/20 09:22:46;;;;;;;95.73;41.87;;;3.00;94.00;;;;;;5058374;28;20194;-80
2020/12/20 09:25:15;;;;;;;97.73;42.53;;;3.10;94.10;;;;;;5050474;28;20536;-82
2020/12/20 09:27:54;;;;;;;88.93;40.30;;;3.10;94.10;;;;;;5055213;28;20292;-81
2020/12/20 09:30:48;;;;;;;91.53;40.07;;;3.00;94.10;;;;;;5048573;28;20203;-82
2020/12/20 09:33:24;;;;;;;92.97;41.27;;;3.10;94.10;;;;;;5028916;28;20226;-81
2020/12/20 09:36:02;;;;;;;91.67;39.93;;;3.20;94.10;;;;;;5053833;28;20361;-81
2020/12/20 09:38:39;;;;;;;99.33;40.77;;;3.20;94.10;;;;;;5043678;28;20288;-81
2020/12/20 09:41:09;;;;;;;99.10;43.10;;;3.20;94.10;;;;;;5053507;28;20205;-81
2020/12/20 09:43:37;;;;;;;97.37;42.43;;;3.20;94.10;;;;;;5049740;28;20206;-81
2020/12/20 09:46:04;;;;;;;88.60;40.33;;;3.30;94.10;;;;;;5062289;28;20206;-81
2020/12/20 09:48:34;;;;;;;89.97;40.07;;;3.30;94.10;;;;;;5070634;28;20739;-81
2020/12/20 09:51:02;;;;;;;88.23;40.97;;;3.40;94.20;;;;;;5055813;28;20739;-81
2020/12/20 09:53:30;;;;;;;86.70;40.97;;;3.40;94.20;;;;;;5042845;28;20203;-81
2020/12/20 09:55:58;;;;;;;82.97;39.47;;;3.40;94.20;;;;;;5051138;28;20196;-81
2020/12/20 09:58:27;;;;;;;97.37;40.63;;;3.40;94.20;;;;;;5071858;28;20196;-81
2020/12/20 10:00:54;;;;;;;90.73;39.77;;;3.40;94.20;;;;;;5046458;28;20204;-80
2020/12/20 10:03:24;;;;;;;88.40;39.97;;;3.40;94.10;;;;;;5051249;28;20208;-82
2020/12/20 10:05:55;;;;;;;86.90;38.53;;;3.40;94.10;;;;;;5054438;28;20685;-81
2020/12/20 10:08:23;;;;;;;86.90;39.43;;;3.40;94.10;;;;;;5053583;28;20203;-81
2020/12/20 10:10:53;;;;;;;88.17;40.57;;;3.40;94.10;;;;;;5057684;28;20268;-81
2020/12/20 10:13:20;;;;;;;89.63;38.37;;;3.40;94.10;;;;;;5070478;28;20195;-81
2020/12/20 10:15:48;;;;;;;90.63;40.57;;;3.40;94.10;;;;;;5087973;28;20325;-81
2020/12/20 10:18:15;;;;;;;81.97;39.03;;;3.40;94.10;;;;;;5080188;28;20207;-81
2020/12/20 10:20:43;;;;;;;92.50;42.20;;;3.40;94.10;;;;;;5047299;28;20471;-80
2020/12/20 10:23:11;;;;;;;89.60;40.57;;;3.40;94.10;;;;;;5041164;28;20206;-79
2020/12/20 10:25:40;;;;;;;88.03;40.37;;;3.40;94.10;;;;;;5056387;28;20221;-81
2020/12/20 10:28:09;;;;;;;85.30;38.87;;;3.50;94.10;;;;;;5059796;28;20324;-81
2020/12/20 10:30:37;;;;;;;90.10;40.37;;;3.30;94.10;;;;;;5052905;28;20222;-82
2020/12/20 10:33:05;;;;;;;88.50;39.93;;;3.50;94.20;;;;;;5072546;28;20575;-81
2020/12/20 10:35:33;;;;;;;89.13;39.47;;;3.50;94.20;;;;;;5042261;28;20212;-80
2020/12/20 10:38:00;;;;;;;88.00;40.03;;;3.60;94.20;;;;;;5046939;28;20638;-81
2020/12/20 10:40:29;;;;;;;86.70;39.37;;;3.60;94.20;;;;;;5058344;28;20635;-81
2020/12/20 10:42:56;;;;;;;81.10;39.80;;;3.70;94.20;;;;;;5055062;28;20203;-83
2020/12/20 10:45:25;;;;;;;79.90;38.13;;;3.70;94.20;;;;;;5046753;28;20201;-81
2020/12/20 10:47:52;;;;;;;76.40;37.93;;;3.80;94.20;;;;;;5062701;28;20698;-80
2020/12/20 10:50:20;;;;;;;78.07;40.53;;;3.80;94.20;;;;;;5055460;28;20235;-81
2020/12/20 10:52:47;;;;;;;69.73;36.43;;;3.80;94.20;;;;;;5042594;28;20205;-81
2020/12/20 10:55:15;;;;;;;76.23;38.77;;;3.90;94.20;;;;;;5053728;28;20206;-81
2020/12/20 10:57:45;;;;;;;80.37;38.73;;;3.80;94.10;;;;;;5059400;28;20199;-83
2020/12/20 11:00:13;;;;;;;78.23;37.83;;;3.90;94.10;;;;;;5049550;28;20775;-80
2020/12/20 11:02:41;;;;;;;81.50;40.10;;;3.90;94.10;;;;;;5046551;28;20634;-82
2020/12/20 11:05:25;;;;;;;93.27;40.87;;;3.90;94.10;;;;;;5058948;28;20262;-81
2020/12/20 11:07:54;;;;;;;85.57;40.40;;;3.80;94.10;;;;;;5052868;28;20204;-81
2020/12/20 11:10:21;;;;;;;87.53;40.80;;;3.90;94.00;;;;;;5051403;28;20692;-82
2020/12/20 11:12:50;;;;;;;87.80;41.43;;;3.80;94.00;;;;;;5060488;28;20203;-80
2020/12/20 11:15:18;;;;;;;84.97;40.77;;;3.70;93.90;;;;;;5056602;28;20560;-82
2020/12/20 11:17:46;;;;;;;88.80;40.00;;;3.60;93.80;;;;;;5044460;28;20619;-81
2020/12/20 11:20:14;;;;;;;84.67;39.60;;;3.60;93.80;;;;;;5060768;28;20647;-82
2020/12/20 11:22:43;;;;;;;93.03;40.57;;;3.50;93.80;;;;;;5042380;28;20219;-80
2020/12/20 11:25:10;;;;;;;88.10;41.23;;;3.50;93.70;;;;;;5058780;28;20696;-80
2020/12/20 11:27:38;;;;;;;85.97;40.23;;;3.40;93.70;;;;;;5055452;28;20695;-82
2020/12/20 11:30:06;;;;;;;86.33;39.17;;;3.30;93.60;;;;;;5058948;28;20577;-81
2020/12/20 11:32:35;;;;;;;91.17;40.13;;;3.20;93.60;;;;;;5059351;28;20316;-81
2020/12/20 11:35:04;;;;;;;78.40;39.53;;;3.20;93.70;;;;;;5054693;28;20197;-80
2020/12/20 11:37:32;;;;;;;87.73;41.17;;;3.00;93.70;;;;;;5027783;28;20211;-81
2020/12/20 11:39:59;;;;;;;89.60;39.30;;;3.10;93.70;;;;;;5071969;28;20818;-81
2020/12/20 11:42:28;;;;;;;83.00;38.13;;;3.00;93.70;;;;;;5076228;28;20222;-81
2020/12/20 11:44:56;;;;;;;78.53;40.03;;;3.00;93.80;;;;;;5075162;28;20191;-82
2020/12/20 11:47:23;;;;;;;88.23;41.27;;;3.00;93.80;;;;;;5057745;28;20225;-81
2020/12/20 11:49:51;;;;;;;87.00;40.87;;;3.00;93.80;;;;;;5047096;28;20305;-82
2020/12/20 11:52:19;;;;;;;86.67;41.90;;;3.00;93.80;;;;;;5059886;28;21118;-80
2020/12/20 11:54:49;;;;;;;93.10;40.57;;;3.00;93.80;;;;;;5050775;28;20712;-82
2020/12/20 11:57:17;;;;;;;90.10;41.37;;;3.10;93.80;;;;;;5054341;28;20212;-81
2020/12/20 11:59:46;;;;;;;83.20;39.83;;;3.10;93.80;;;;;;5057173;28;20208;-80
2020/12/20 12:02:13;;;;;;;81.20;37.73;;;3.00;93.80;;;;;;5053923;28;20665;-82
2020/12/20 12:04:41;;;;;;;73.87;37.27;;;3.00;93.70;;;;;;5041455;28;20210;-81
2020/12/20 12:07:08;;;;;;;72.43;37.90;;;3.00;93.70;;;;;;5055591;28;20593;-82
2020/12/20 12:09:36;;;;;;;78.83;37.77;;;2.90;93.70;;;;;;5067636;28;20202;-81
2020/12/20 12:12:04;;;;;;;76.73;37.93;;;2.90;93.70;;;;;;5072884;28;20224;-81
2020/12/20 12:14:31;;;;;;;76.23;36.93;;;2.90;93.70;;;;;;5056361;28;20310;-81
2020/12/20 12:16:59;;;;;;;71.70;33.80;;;2.80;93.70;;;;;;5049082;28;20213;-81
2020/12/20 12:19:27;;;;;;;69.83;35.83;;;2.80;93.70;;;;;;5042717;28;20299;-83
2020/12/20 12:21:54;;;;;;;75.17;37.17;;;2.80;93.70;;;;;;5056091;28;20685;-82
2020/12/20 12:24:22;;;;;;;72.83;35.73;;;2.70;93.70;;;;;;5055916;28;20579;-82
2020/12/20 12:26:50;;;;;;;75.23;37.30;;;2.70;93.70;;;;;;5039911;28;20739;-82
2020/12/20 12:29:18;;;;;;;81.30;38.30;;;2.70;93.80;;;;;;5063608;28;20217;-81
2020/12/20 12:31:46;;;;;;;74.47;38.27;;;2.70;93.70;;;;;;5059594;28;20333;-81
2020/12/20 12:34:14;;;;;;;77.93;35.27;;;2.80;93.80;;;;;;5074143;28;20197;-80
2020/12/20 12:36:42;;;;;;;63.03;34.47;;;2.70;93.80;;;;;;5074880;28;20225;-81
2020/12/20 12:39:10;;;;;;;67.40;35.80;;;2.60;93.80;;;;;;5069219;28;20198;-83
2020/12/20 12:41:38;;;;;;;72.57;35.87;;;2.60;93.70;;;;;;5056609;28;20206;-81
2020/12/20 12:44:07;;;;;;;63.33;33.27;;;2.60;93.80;;;;;;5062995;28;20279;-82
2020/12/20 12:46:35;;;;;;;68.23;35.23;;;2.60;93.70;;;;;;5063333;28;20226;-81